Flight Track Log - Related Links

Times and Time Zones

All times are in EDT time to prevent confusion due to time zone crossing. See the FFT908 flight status page for this flight to view local times or setup timezone preferences in your user account.

Time Position Orientation Groundspeed Altitude Reporting Facility
EDT Latitude Longitude Course Direction KTS MPH feet Rate Location/Type
Tue 03:12:33 PM 41.7970 -87.7370 51° Northeast 134 154 1,800  Level FlightAware ADS-B
Tue 03:12:50 PM 41.7990 -87.7230 79° East 139 160 2,500 1,714 Climbing FlightAware ADS-B
Tue 03:13:15 PM 41.7990 -87.7000 90° East 170 196 3,000 764 Climbing FlightAware ADS-B
Tue 03:13:45 PM 41.7980 -87.6600 92° East 236 272 3,200 873 Climbing FlightAware ADS-B
Tue 03:14:10 PM 41.7980 -87.6170 90° East 280 322 3,800 1,946 Climbing FlightAware ADS-B
Tue 03:14:22 PM 41.8010 -87.5960 79° East 281 323 4,400 1,946 Climbing FlightAware ADS-B
Tue 03:14:47 PM 41.8110 -87.5580 71° East 281 323 5,000 778 Climbing FlightAware ADS-B
Tue 03:15:16 PM 41.8240 -87.5090 70° East 286 329 5,100 105 Climbing FlightAware ADS-B
Tue 03:15:44 PM 41.8340 -87.4610 74° East 289 333 5,100 1,714 Level FlightAware ADS-B
Tue 03:16:26 PM 41.8260 -87.3870 98° East 294 338 7,100 3,000 Climbing FlightAware ADS-B
Tue 03:16:54 PM 41.8160 -87.3350 104° East 301 346 8,600 2,786 Climbing FlightAware ADS-B
Tue 03:17:22 PM 41.8060 -87.2840 105° East 317 365 9,700 2,571 Climbing FlightAware ADS-B
Tue 03:18:04 PM 41.7900 -87.2030 105° East 328 377 11,600 2,714 Climbing FlightAware ADS-B
Tue 03:18:46 PM 41.7730 -87.1190 105° East 339 390 13,500 2,447 Climbing FlightAware ADS-B
Tue 03:19:47 PM 41.7630 -86.9910 96° East 353 406 15,800 2,355 Climbing FlightAware ADS-B
Tue 03:20:33 PM 41.7640 -86.8850 89° East 362 417 17,700 1,857 Climbing FlightAware ADS-B
Tue 03:21:11 PM 41.7650 -86.7990 89° East 392 451 18,400 1,286 Climbing FlightAware ADS-B
Tue 03:21:57 PM 41.7660 -86.6850 89° East 418 481 19,500 1,636 Climbing FlightAware ADS-B
Tue 03:22:39 PM 41.7670 -86.5730 89° East 432 497 20,800 1,976 Climbing FlightAware ADS-B
Tue 03:23:19 PM 41.7680 -86.4680 89° East 438 504 22,200 1,786 Climbing FlightAware ADS-B
Tue 03:24:03 PM 41.7690 -86.3400 89° East 457 526 23,300 1,674 Climbing FlightAware ADS-B
Tue 03:24:45 PM 41.7700 -86.2240 89° East 457 526 24,600 1,683 Climbing FlightAware ADS-B
Tue 03:25:25 PM 41.7710 -86.1110 89° East 469 540 25,600 1,537 Climbing FlightAware ADS-B
Tue 03:26:07 PM 41.7730 -85.9850 89° East 477 549 26,700 1,500 Climbing FlightAware ADS-B
Tue 03:26:49 PM 41.7740 -85.8700 89° East 484 557 27,700 1,500 Climbing FlightAware ADS-B
Tue 03:27:31 PM 41.7750 -85.7340 89° East 490 564 28,800 1,350 Climbing FlightAware ADS-B
Tue 03:28:09 PM 41.7760 -85.6160 89° East 499 574 29,500 1,120 Climbing FlightAware ADS-B
Tue 03:28:46 PM 41.7760 -85.5080 90° East 505 581 30,200 1,291 Climbing FlightAware ADS-B
Tue 03:29:28 PM 41.7770 -85.3710 89° East 510 587 31,200 1,186 Climbing FlightAware ADS-B
Tue 03:30:12 PM 41.7780 -85.2380 89° East 517 595 31,900 950 Climbing FlightAware ADS-B
Tue 03:31:09 PM 41.7750 -85.0520 91° East 533 613 32,800 1,113 Climbing FlightAware ADS-B
Tue 03:31:49 PM 41.7560 -84.9210 101° East 536 617 33,700 1,463 Climbing FlightAware ADS-B
Tue 03:32:31 PM 41.7330 -84.7890 103° East 530 610 34,800 1,829 Climbing FlightAware ADS-B
Tue 03:33:11 PM 41.7100 -84.6560 103° East 511 588 36,200 1,692 Climbing FlightAware ADS-B
Tue 03:33:49 PM 41.6910 -84.5470 103° East 485 558 37,000 578 Climbing FlightAware ADS-B
Tue 03:34:34 PM 41.6670 -84.4150 104° East 488 562 37,000  Level FlightAware ADS-B
Tue 03:35:30 PM 41.6380 -84.2530 103° East 488 562 37,000  Level FlightAware ADS-B
Tue 03:36:10 PM 41.6160 -84.1330 104° East 486 559 37,000  Level FlightAware ADS-B
Tue 03:36:50 PM 41.5940 -84.0140 104° East 485 558 37,000  Level FlightAware ADS-B
Tue 03:37:34 PM 41.5700 -83.8840 104° East 483 556 37,000  Level FlightAware ADS-B
Tue 03:38:16 PM 41.5490 -83.7670 103° East 482 555 37,000  Level FlightAware ADS-B
Tue 03:39:00 PM 41.5240 -83.6420 105° East 478 550 37,000  Level FlightAware ADS-B
Tue 03:39:40 PM 41.4850 -83.5350 116° Southeast 475 547 37,000  Level FlightAware ADS-B
Tue 03:40:20 PM 41.4420 -83.4300 119° Southeast 476 548 37,000  Level FlightAware ADS-B
Tue 03:41:06 PM 41.3960 -83.3190 119° Southeast 476 548 37,000  Level FlightAware ADS-B
Tue 03:41:44 PM 41.3540 -83.2180 119° Southeast 478 550 37,000 81 Level FlightAware ADS-B
Tue 03:42:20 PM 41.3160 -83.1250 119° Southeast 479 551 37,100 76 Climbing FlightAware ADS-B
Tue 03:43:03 PM 41.2680 -83.0190 121° Southeast 475 547 37,100 -72 Level FlightAware ADS-B
Tue 03:43:43 PM 41.2240 -82.9220 121° Southeast 474 545 37,000 -71 Descending FlightAware ADS-B
Tue 03:44:27 PM 41.1710 -82.8040 121° Southeast 473 544 37,000  Level FlightAware ADS-B
Tue 03:45:05 PM 41.1320 -82.7160 120° Southeast 473 544 37,000  Level FlightAware ADS-B
Tue 03:45:51 PM 41.0800 -82.5990 120° Southeast 473 544 37,000  Level FlightAware ADS-B
Tue 03:46:32 PM 41.0340 -82.4980 121° Southeast 474 545 37,000  Level FlightAware ADS-B
Tue 03:47:11 PM 40.9910 -82.4020 121° Southeast 474 545 37,000  Level FlightAware ADS-B
Tue 03:47:51 PM 40.9420 -82.3060 124° Southeast 473 544 37,000  Level FlightAware ADS-B
Tue 03:48:33 PM 40.8900 -82.2070 125° Southeast 474 545 37,000  Level FlightAware ADS-B
Tue 03:49:13 PM 40.8390 -82.1080 124° Southeast 474 545 37,000  Level FlightAware ADS-B
Tue 03:49:57 PM 40.7850 -82.0010 124° Southeast 474 545 37,000  Level FlightAware ADS-B
Tue 03:50:37 PM 40.7360 -81.9050 124° Southeast 474 545 37,000  Level FlightAware ADS-B
Tue 03:51:17 PM 40.6870 -81.8090 124° Southeast 472 543 37,000  Level FlightAware ADS-B
Tue 03:52:01 PM 40.6350 -81.7070 124° Southeast 472 543 37,000  Level FlightAware ADS-B
Tue 03:52:44 PM 40.5830 -81.6030 123° Southeast 478 550 37,000  Level FlightAware ADS-B
Tue 03:53:24 PM 40.5330 -81.5040 124° Southeast 477 549 37,000  Level FlightAware ADS-B
Tue 03:54:08 PM 40.4940 -81.3850 113° Southeast 489 563 37,000  Level FlightAware ADS-B
Tue 03:54:50 PM 40.4840 -81.2610 96° East 490 564 37,000  Level FlightAware ADS-B
Tue 03:55:30 PM 40.4770 -81.1440 94° East 493 567 37,000  Level FlightAware ADS-B
Tue 03:56:12 PM 40.4700 -81.0190 94° East 497 572 37,000 71 Level FlightAware ADS-B
Tue 03:56:54 PM 40.4620 -80.8930 95° East 496 571 37,100 68 Climbing FlightAware ADS-B
Tue 03:57:40 PM 40.4530 -80.7530 95° East 492 566 37,100  Level FlightAware ADS-B
Tue 03:58:33 PM 40.4430 -80.5980 95° East 483 556 37,100 -64 Level FlightAware ADS-B
Tue 03:59:14 PM 40.4360 -80.4800 94° East 479 551 37,000 -69 Descending FlightAware ADS-B
Tue 04:00:00 PM 40.4270 -80.3460 95° East 474 545 37,000  Level FlightAware ADS-B
Tue 04:00:40 PM 40.4190 -80.2320 95° East 472 543 37,000  Level FlightAware ADS-B
Tue 04:01:22 PM 40.4110 -80.1140 95° East 469 540 37,000  Level FlightAware ADS-B
Tue 04:02:05 PM 40.4030 -79.9940 95° East 467 537 37,000  Level FlightAware ADS-B
Tue 04:02:46 PM 40.3950 -79.8770 95° East 467 537 37,000  Level FlightAware ADS-B
Tue 04:03:24 PM 40.3870 -79.7680 95° East 469 540 37,000 -214 Level FlightAware ADS-B
Tue 04:04:10 PM 40.3840 -79.6410 92° East 473 544 36,700 -488 Descending FlightAware ADS-B
Tue 04:04:50 PM 40.3820 -79.5250 91° East 473 544 36,300 -494 Descending FlightAware ADS-B
Tue 04:05:35 PM 40.3790 -79.3960 92° East 471 542 36,000 -494 Descending FlightAware ADS-B
Tue 04:06:15 PM 40.3760 -79.2810 92° East 469 540 35,600 -667 Descending FlightAware ADS-B
Tue 04:06:56 PM 40.3730 -79.1670 92° East 463 533 35,100 -1,200 Descending FlightAware ADS-B
Tue 04:07:40 PM 40.3720 -79.0430 91° East 462 532 33,900 -1,735 Descending FlightAware ADS-B
Tue 04:08:19 PM 40.3690 -78.9370 92° East 456 525 32,700 -2,000 Descending FlightAware ADS-B
Tue 04:09:04 PM 40.3650 -78.8110 92° East 450 518 31,100 -2,022 Descending FlightAware ADS-B
Tue 04:09:48 PM 40.3620 -78.6920 92° East 442 509 29,700 -1,929 Descending FlightAware ADS-B
Tue 04:10:28 PM 40.3590 -78.5880 92° East 434 499 28,400 -2,000 Descending FlightAware ADS-B
Tue 04:11:18 PM 40.3550 -78.4590 92° East 423 487 26,700 -1,981 Descending FlightAware ADS-B
Tue 04:12:14 PM 40.3510 -78.3220 92° East 415 478 24,900 -1,688 Descending FlightAware ADS-B
Tue 04:12:54 PM 40.3480 -78.2320 92° East 417 480 24,000 -659 Descending FlightAware ADS-B
Tue 04:13:36 PM 40.3450 -78.1420 92° East 392 451 24,000  Level FlightAware ADS-B
Tue 04:15:31 PM 40.3340 -77.8450 93° East 399 459 24,000  Level FlightAware ADS-B
Tue 04:16:16 PM 40.3300 -77.7360 93° East 399 459 24,000 -353 Level FlightAware ADS-B
Tue 04:16:56 PM 40.3260 -77.6390 93° East 397 457 23,500 -835 Descending FlightAware ADS-B
Tue 04:17:35 PM 40.3220 -77.5470 93° East 393 452 22,900 -978 Descending FlightAware ADS-B
Tue 04:21:26 PM 40.2900 -77.0170 94° East 407 468 19,100 -1,000 Descending FlightAware ADS-B
Tue 04:22:23 PM 40.2580 -76.8780 107° East 398 458 18,100 -1,052 Descending FlightAware ADS-B
Tue 04:23:03 PM 40.2360 -76.7860 107° East 394 453 17,400 -1,341 Descending FlightAware ADS-B
Tue 04:23:48 PM 40.2130 -76.6860 107° East 382 440 16,200 -1,769 Descending FlightAware ADS-B
Tue 04:24:21 PM 40.1960 -76.6100 106° East 377 434 15,100 -1,948 Descending FlightAware ADS-B
Tue 04:25:05 PM 40.1740 -76.5190 108° East 367 422 13,700 -2,195 Descending FlightAware ADS-B
Tue 04:25:43 PM 40.1550 -76.4390 107° East 351 404 12,100 -2,000 Descending FlightAware ADS-B
Tue 04:26:29 PM 40.1340 -76.3520 107° East 315 362 10,900 -1,865 Descending FlightAware ADS-B
Tue 04:26:57 PM 40.1230 -76.3030 106° East 311 358 9,800 -1,929 Descending FlightAware ADS-B
Tue 04:27:25 PM 40.1180 -76.2500 97° East 308 354 9,100 -1,500 Descending FlightAware ADS-B
Tue 04:27:53 PM 40.1140 -76.1970 96° East 302 348 8,400 -1,607 Descending FlightAware ADS-B
Tue 04:28:21 PM 40.1100 -76.1460 96° East 302 348 7,600 -1,179 Descending FlightAware ADS-B
Tue 04:28:49 PM 40.1070 -76.0950 94° East 301 346 7,300 -333 Descending FlightAware ADS-B
Tue 04:29:15 PM 40.1040 -76.0510 95° East 301 346 7,300  Level FlightAware ADS-B
Tue 04:29:45 PM 40.1160 -75.9970 74° East 299 344 7,300  Level FlightAware ADS-B
Tue 04:30:13 PM 40.1290 -75.9510 70° East 302 348 7,300  Level FlightAware ADS-B
Tue 04:30:41 PM 40.1500 -75.9100 56° Northeast 294 338 7,300 -692 Level FlightAware ADS-B
Tue 04:31:05 PM 40.1690 -75.8730 56° Northeast 296 341 6,700 -857 Descending FlightAware ADS-B
Tue 04:31:51 PM 40.1900 -75.8000 69° East 297 342 6,300 -353 Descending FlightAware ADS-B
Tue 04:32:13 PM 40.2020 -75.7580 69° East 297 342 6,300 -143 Level FlightAware ADS-B
Tue 04:32:33 PM 40.2070 -75.7250 79° East 299 344 6,200 -783 Descending FlightAware ADS-B
Tue 04:32:59 PM 40.2090 -75.6780 87° East 296 341 5,700 -1,043 Descending FlightAware ADS-B
Tue 04:33:19 PM 40.2090 -75.6490 90° East 297 342 5,400 -282 Descending FlightAware ADS-B
Tue 04:34:24 PM 40.2130 -75.5240 88° East 293 337 5,300 -67 Descending FlightAware ADS-B
Tue 04:34:49 PM 40.2240 -75.4910 66° East 287 330 5,300  Level FlightAware ADS-B
Tue 04:35:19 PM 40.2470 -75.4390 60° Northeast 290 334 5,300  Level FlightAware ADS-B
Tue 04:35:47 PM 40.2640 -75.4000 60° Northeast 286 329 5,300  Level FlightAware ADS-B
Tue 04:36:13 PM 40.2820 -75.3570 61° Northeast 290 334 5,300  Level FlightAware ADS-B
Tue 04:36:33 PM 40.2950 -75.3280 60° Northeast 289 333 5,300 -480 Level FlightAware ADS-B
Tue 04:37:03 PM 40.3160 -75.2790 61° Northeast 289 333 4,900 -1,164 Descending FlightAware ADS-B
Tue 04:37:40 PM 40.3370 -75.2280 62° Northeast 290 334 4,000 -545 Descending FlightAware ADS-B
Tue 04:39:59 PM 40.4000 -75.0040 70° East 285 328 3,300 -253 Descending FlightAware ADS-B
Tue 04:40:26 PM 40.4150 -74.9510 70° East 288 331 3,300  Level FlightAware ADS-B
Tue 04:40:43 PM 40.4230 -74.9240 69° East 291 335 3,300  Level FlightAware ADS-B
Tue 04:41:08 PM 40.4420 -74.8860 57° Northeast 290 334 3,300  Level FlightAware ADS-B
Tue 04:41:36 PM 40.4590 -74.8430 63° Northeast 289 333 3,300  Level FlightAware ADS-B
Tue 04:41:48 PM 40.4610 -74.8220 83° East 277 319 3,300  Level FlightAware ADS-B
Tue 04:42:22 PM 40.4520 -74.7720 103° East 247 284 3,300  Level FlightAware ADS-B
Tue 04:42:34 PM 40.4450 -74.7570 122° Southeast 242 278 3,300  Level FlightAware ADS-B
Tue 04:42:50 PM 40.4330 -74.7410 135° Southeast 234 269 3,300  Level FlightAware ADS-B
Tue 04:43:10 PM 40.4180 -74.7210 135° Southeast 219 252 3,300  Level FlightAware ADS-B
Tue 04:43:20 PM 40.4100 -74.7140 146° Southeast 214 246 3,300 -414 Level FlightAware ADS-B
Tue 04:43:39 PM 40.3930 -74.7090 167° South 206 237 3,100 -750 Descending FlightAware ADS-B
Tue 04:44:00 PM 40.3720 -74.7060 174° South 201 231 2,800 -655 Descending FlightAware ADS-B
Tue 04:44:34 PM 40.3480 -74.7170 199° South 168 193 2,500 -700 Descending FlightAware ADS-B
Tue 04:45:00 PM 40.3320 -74.7360 222° Southwest 157 181 2,100 -818 Descending FlightAware ADS-B
Tue 04:45:18 PM 40.3230 -74.7480 225° Southwest 151 174 1,900 -857 Descending FlightAware ADS-B
Tue 04:45:42 PM 40.3120 -74.7630 226° Southwest 146 168 1,500 -462 Descending FlightAware ADS-B
Tue 04:46:10 PM 40.3010 -74.7780 226° Southwest 146 168 1,500  Level FlightAware ADS-B

Login

Don't have an account? Register now (free) for customized features, flight alerts, and more!